sensor_id;sensor_type;location;lat;lon;timestamp;pressure;altitude;pressure_sealevel;temperature;humidity
79463;BME280;68931;47.286;18.756;2023-06-14T00:00:31;100356.66;;;10.82;87.43
79463;BME280;68931;47.286;18.756;2023-06-14T00:01:03;100372.16;;;10.86;86.83
79463;BME280;68931;47.286;18.756;2023-06-14T00:01:37;100363.59;;;10.83;87.63
79463;BME280;68931;47.286;18.756;2023-06-14T00:02:09;100362.41;;;10.88;87.11
79463;BME280;68931;47.286;18.756;2023-06-14T00:02:41;100371.69;;;10.94;87.16
79463;BME280;68931;47.286;18.756;2023-06-14T00:03:14;100365.66;;;10.92;87.17
79463;BME280;68931;47.286;18.756;2023-06-14T00:03:49;100366.59;;;10.91;86.88
79463;BME280;68931;47.286;18.756;2023-06-14T00:04:21;100372.16;;;10.86;86.30
79463;BME280;68931;47.286;18.756;2023-06-14T00:04:53;100368.28;;;10.92;85.60
79463;BME280;68931;47.286;18.756;2023-06-14T00:05:25;100363.03;;;10.92;85.21
79463;BME280;68931;47.286;18.756;2023-06-14T00:05:57;100370.06;;;10.91;85.20
79463;BME280;68931;47.286;18.756;2023-06-14T00:06:29;100338.88;;;10.73;86.05
79463;BME280;68931;47.286;18.756;2023-06-14T00:07:02;100369.44;;;10.88;85.26
79463;BME280;68931;47.286;18.756;2023-06-14T00:07:35;100372.16;;;10.86;85.97
79463;BME280;68931;47.286;18.756;2023-06-14T00:08:09;100368.28;;;10.78;85.26
79463;BME280;68931;47.286;18.756;2023-06-14T00:08:41;100366.59;;;10.77;85.94
79463;BME280;68931;47.286;18.756;2023-06-14T00:09:13;100370.91;;;10.78;86.10
79463;BME280;68931;47.286;18.756;2023-06-14T00:09:45;100362.50;;;10.73;86.22
79463;BME280;68931;47.286;18.756;2023-06-14T00:10:17;100378.50;;;10.82;87.39
79463;BME280;68931;47.286;18.756;2023-06-14T00:10:49;100379.09;;;10.87;86.86
79463;BME280;68931;47.286;18.756;2023-06-14T00:11:21;100372.22;;;10.85;87.05
79463;BME280;68931;47.286;18.756;2023-06-14T00:11:53;100381.03;;;10.84;87.10
79463;BME280;68931;47.286;18.756;2023-06-14T00:12:25;100369.22;;;10.77;86.56
79463;BME280;68931;47.286;18.756;2023-06-14T00:12:57;100381.13;;;10.82;86.14
79463;BME280;68931;47.286;18.756;2023-06-14T00:13:31;100375.16;;;10.80;86.63
79463;BME280;68931;47.286;18.756;2023-06-14T00:14:03;100380.19;;;10.83;85.93
79463;BME280;68931;47.286;18.756;2023-06-14T00:14:35;100384.41;;;10.86;86.08
79463;BME280;68931;47.286;18.756;2023-06-14T00:15:08;100382.72;;;10.85;86.42
79463;BME280;68931;47.286;18.756;2023-06-14T00:15:41;100384.59;;;10.83;86.48
79463;BME280;68931;47.286;18.756;2023-06-14T00:16:14;100380.19;;;10.83;87.01
79463;BME280;68931;47.286;18.756;2023-06-14T00:16:48;100351.88;;;10.60;86.86
79463;BME280;68931;47.286;18.756;2023-06-14T00:17:23;100383.09;;;10.79;87.50
79463;BME280;68931;47.286;18.756;2023-06-14T00:17:57;100378.72;;;10.79;87.44
79463;BME280;68931;47.286;18.756;2023-06-14T00:18:32;100381.97;;;10.83;87.57
79463;BME280;68931;47.286;18.756;2023-06-14T00:19:04;100383.66;;;10.84;86.99
79463;BME280;68931;47.286;18.756;2023-06-14T00:19:36;100378.72;;;10.79;86.43
79463;BME280;68931;47.286;18.756;2023-06-14T00:20:09;100380.09;;;10.85;86.43
79463;BME280;68931;47.286;18.756;2023-06-14T00:20:41;100348.03;;;10.66;86.26
79463;BME280;68931;47.286;18.756;2023-06-14T00:21:13;100379.34;;;10.83;86.15
79463;BME280;68931;47.286;18.756;2023-06-14T00:21:48;100383.56;;;10.85;86.72
79463;BME280;68931;47.286;18.756;2023-06-14T00:22:20;100384.81;;;10.80;86.61
79463;BME280;68931;47.286;18.756;2023-06-14T00:22:53;100369.41;;;10.74;86.43
79463;BME280;68931;47.286;18.756;2023-06-14T00:23:26;100377.03;;;10.78;86.17
79463;BME280;68931;47.286;18.756;2023-06-14T00:23:58;100376.16;;;10.78;86.83
79463;BME280;68931;47.286;18.756;2023-06-14T00:24:31;100384.03;;;10.78;86.32
79463;BME280;68931;47.286;18.756;2023-06-14T00:25:03;100385.72;;;10.79;86.59
79463;BME280;68931;47.286;18.756;2023-06-14T00:25:39;100384.97;;;10.77;86.04
79463;BME280;68931;47.286;18.756;2023-06-14T00:26:14;100387.59;;;10.77;87.05
79463;BME280;68931;47.286;18.756;2023-06-14T00:26:47;100383.50;;;10.73;86.72
79463;BME280;68931;47.286;18.756;2023-06-14T00:27:19;100387.78;;;10.74;87.28
79463;BME280;68931;47.286;18.756;2023-06-14T00:27:51;100392.28;;;10.72;87.08
79463;BME280;68931;47.286;18.756;2023-06-14T00:28:23;100383.19;;;10.63;87.59
79463;BME280;68931;47.286;18.756;2023-06-14T00:28:55;100389.44;;;10.61;87.19
79463;BME280;68931;47.286;18.756;2023-06-14T00:29:31;100391.22;;;10.60;87.88
79463;BME280;68931;47.286;18.756;2023-06-14T00:30:03;100392.84;;;10.63;87.38
79463;BME280;68931;47.286;18.756;2023-06-14T00:30:35;100396.03;;;10.68;88.02
79463;BME280;68931;47.286;18.756;2023-06-14T00:31:07;100377.00;;;10.64;87.72
79463;BME280;68931;47.286;18.756;2023-06-14T00:31:39;100388.91;;;10.70;87.86
79463;BME280;68931;47.286;18.756;2023-06-14T00:32:11;100386.28;;;10.70;87.06
79463;BME280;68931;47.286;18.756;2023-06-14T00:32:44;100384.41;;;10.72;87.65
79463;BME280;68931;47.286;18.756;2023-06-14T00:33:16;100375.97;;;10.67;88.06
79463;BME280;68931;47.286;18.756;2023-06-14T00:33:48;100374.19;;;10.67;87.54
79463;BME280;68931;47.286;18.756;2023-06-14T00:34:20;100389.56;;;10.73;87.52
79463;BME280;68931;47.286;18.756;2023-06-14T00:34:52;100386.84;;;10.75;87.77
79463;BME280;68931;47.286;18.756;2023-06-14T00:35:24;100384.41;;;10.72;86.62
79463;BME280;68931;47.286;18.756;2023-06-14T00:35:57;100382.81;;;10.69;86.99
79463;BME280;68931;47.286;18.756;2023-06-14T00:36:29;100384.31;;;10.73;86.96
79463;BME280;68931;47.286;18.756;2023-06-14T00:37:01;100393.03;;;10.74;86.21
79463;BME280;68931;47.286;18.756;2023-06-14T00:37:33;100381.97;;;10.69;87.00
79463;BME280;68931;47.286;18.756;2023-06-14T00:38:05;100388.91;;;10.70;87.25
79463;BME280;68931;47.286;18.756;2023-06-14T00:38:37;100386.47;;;10.67;86.80
79463;BME280;68931;47.286;18.756;2023-06-14T00:39:09;100381.59;;;10.61;86.71
79463;BME280;68931;47.286;18.756;2023-06-14T00:39:42;100389.63;;;10.57;86.28
79463;BME280;68931;47.286;18.756;2023-06-14T00:40:17;100394.41;;;10.65;87.31
79463;BME280;68931;47.286;18.756;2023-06-14T00:40:49;100386.91;;;10.59;87.21
79463;BME280;68931;47.286;18.756;2023-06-14T00:41:21;100390.00;;;10.66;86.81
79463;BME280;68931;47.286;18.756;2023-06-14T00:41:53;100384.38;;;10.57;87.01
79463;BME280;68931;47.286;18.756;2023-06-14T00:42:25;100384.38;;;10.57;86.61
79463;BME280;68931;47.286;18.756;2023-06-14T00:42:58;100377.63;;;10.53;87.42
79463;BME280;68931;47.286;18.756;2023-06-14T00:43:30;100393.84;;;10.60;87.47
79463;BME280;68931;47.286;18.756;2023-06-14T00:44:02;100398.25;;;10.60;87.09
79463;BME280;68931;47.286;18.756;2023-06-14T00:44:34;100395.72;;;10.58;87.51
79463;BME280;68931;47.286;18.756;2023-06-14T00:45:09;100388.13;;;10.53;87.43
79463;BME280;68931;47.286;18.756;2023-06-14T00:45:41;100391.31;;;10.59;86.98
79463;BME280;68931;47.286;18.756;2023-06-14T00:46:13;100394.88;;;10.57;87.39
79463;BME280;68931;47.286;18.756;2023-06-14T00:46:45;100397.56;;;10.56;86.75
79463;BME280;68931;47.286;18.756;2023-06-14T00:47:18;100394.09;;;10.55;86.64
79463;BME280;68931;47.286;18.756;2023-06-14T00:47:51;100379.03;;;10.45;87.03
79463;BME280;68931;47.286;18.756;2023-06-14T00:48:27;100378.81;;;10.48;87.50
79463;BME280;68931;47.286;18.756;2023-06-14T00:49:01;100395.25;;;10.51;87.66
79463;BME280;68931;47.286;18.756;2023-06-14T00:49:33;100392.63;;;10.51;87.93
79463;BME280;68931;47.286;18.756;2023-06-14T00:50:07;100395.41;;;10.48;87.03
79463;BME280;68931;47.286;18.756;2023-06-14T00:50:40;100390.94;;;10.50;87.87
79463;BME280;68931;47.286;18.756;2023-06-14T00:51:12;100376.41;;;10.45;87.52
79463;BME280;68931;47.286;18.756;2023-06-14T00:51:44;100379.69;;;10.48;87.68
79463;BME280;68931;47.286;18.756;2023-06-14T00:52:17;100380.81;;;10.44;87.18
79463;BME280;68931;47.286;18.756;2023-06-14T00:52:50;100391.69;;;10.52;86.79
79463;BME280;68931;47.286;18.756;2023-06-14T00:53:22;100383.22;;;10.47;87.51
79463;BME280;68931;47.286;18.756;2023-06-14T00:53:54;100393.56;;;10.50;87.74
79463;BME280;68931;47.286;18.756;2023-06-14T00:54:26;100380.81;;;10.44;87.25
79463;BME280;68931;47.286;18.756;2023-06-14T00:54:58;100391.22;;;10.46;86.96
79463;BME280;68931;47.286;18.756;2023-06-14T00:55:30;100387.22;;;10.39;86.79
79463;BME280;68931;47.286;18.756;2023-06-14T00:56:04;100378.63;;;10.37;86.98
79463;BME280;68931;47.286;18.756;2023-06-14T00:56:37;100395.41;;;10.48;86.36
79463;BME280;68931;47.286;18.756;2023-06-14T00:57:12;100373.28;;;10.38;86.52
79463;BME280;68931;47.286;18.756;2023-06-14T00:57:45;100392.88;;;10.47;86.15
79463;BME280;68931;47.286;18.756;2023-06-14T00:58:17;100382.22;;;10.50;87.61
79463;BME280;68931;47.286;18.756;2023-06-14T00:58:50;100392.34;;;10.56;87.56
79463;BME280;68931;47.286;18.756;2023-06-14T00:59:22;100385.69;;;10.50;87.62
79463;BME280;68931;47.286;18.756;2023-06-14T00:59:55;100378.94;;;10.46;86.72
79463;BME280;68931;47.286;18.756;2023-06-14T01:00:27;100394.56;;;10.48;87.91
79463;BME280;68931;47.286;18.756;2023-06-14T01:01:00;100389.31;;;10.48;87.34
79463;BME280;68931;47.286;18.756;2023-06-14T01:01:32;100395.91;;;10.55;87.95
79463;BME280;68931;47.286;18.756;2023-06-14T01:02:06;100400.13;;;10.57;87.79
79463;BME280;68931;47.286;18.756;2023-06-14T01:02:39;100393.00;;;10.60;87.13
79463;BME280;68931;47.286;18.756;2023-06-14T01:03:11;100397.41;;;10.59;87.54
79463;BME280;68931;47.286;18.756;2023-06-14T01:03:44;100393.19;;;10.56;87.56
79463;BME280;68931;47.286;18.756;2023-06-14T01:04:16;100384.75;;;10.51;86.88
79463;BME280;68931;47.286;18.756;2023-06-14T01:04:51;100388.00;;;10.41;87.33
79463;BME280;68931;47.286;18.756;2023-06-14T01:05:24;100390.44;;;10.44;87.56
79463;BME280;68931;47.286;18.756;2023-06-14T01:06:09;100392.22;;;10.43;86.89
79463;BME280;68931;47.286;18.756;2023-06-14T01:07:36;100384.34;;;10.43;87.49
79463;BME280;68931;47.286;18.756;2023-06-14T01:08:25;100390.38;;;10.45;87.59
79463;BME280;68931;47.286;18.756;2023-06-14T01:10:03;100393.19;;;10.56;88.31
79463;BME280;68931;47.286;18.756;2023-06-14T01:10:47;100383.28;;;10.62;88.12
79463;BME280;68931;47.286;18.756;2023-06-14T01:11:33;100371.63;;;10.51;87.59
79463;BME280;68931;47.286;18.756;2023-06-14T01:12:39;100377.00;;;10.64;88.05
79463;BME280;68931;47.286;18.756;2023-06-14T01:13:35;100369.78;;;10.53;86.20
79463;BME280;68931;47.286;18.756;2023-06-14T01:14:07;100372.19;;;10.56;86.46
79463;BME280;68931;47.286;18.756;2023-06-14T01:14:41;100389.06;;;10.67;86.51
79463;BME280;68931;47.286;18.756;2023-06-14T01:15:14;100377.34;;;10.58;86.57
79463;BME280;68931;47.286;18.756;2023-06-14T01:15:47;100387.38;;;10.66;86.53
79463;BME280;68931;47.286;18.756;2023-06-14T01:16:20;100380.44;;;10.65;85.83
79463;BME280;68931;47.286;18.756;2023-06-14T01:16:53;100382.97;;;10.66;85.54
79463;BME280;68931;47.286;18.756;2023-06-14T01:17:25;100339.94;;;10.40;86.34
79463;BME280;68931;47.286;18.756;2023-06-14T01:17:58;100377.28;;;10.60;85.59
79463;BME280;68931;47.286;18.756;2023-06-14T01:18:35;100385.81;;;10.63;85.61
79463;BME280;68931;47.286;18.756;2023-06-14T01:19:10;100375.50;;;10.60;85.98
79463;BME280;68931;47.286;18.756;2023-06-14T01:19:45;100371.34;;;10.56;85.76
79463;BME280;68931;47.286;18.756;2023-06-14T01:20:20;100389.44;;;10.61;86.20
79463;BME280;68931;47.286;18.756;2023-06-14T01:20:53;100382.34;;;10.63;86.09
79463;BME280;68931;47.286;18.756;2023-06-14T01:21:26;100391.91;;;10.64;87.10
79463;BME280;68931;47.286;18.756;2023-06-14T01:22:01;100386.06;;;10.59;86.73
79463;BME280;68931;47.286;18.756;2023-06-14T01:22:33;100380.81;;;10.59;87.16
79463;BME280;68931;47.286;18.756;2023-06-14T01:23:05;100385.44;;;10.55;86.50
79463;BME280;68931;47.286;18.756;2023-06-14T01:23:37;100387.38;;;10.51;86.93
79463;BME280;68931;47.286;18.756;2023-06-14T01:24:09;100377.72;;;10.38;86.23
79463;BME280;68931;47.286;18.756;2023-06-14T01:24:42;100386.81;;;10.46;87.12
79463;BME280;68931;47.286;18.756;2023-06-14T01:25:17;100363.47;;;10.42;87.27
79463;BME280;68931;47.286;18.756;2023-06-14T01:25:52;100379.75;;;10.47;86.85
79463;BME280;68931;47.286;18.756;2023-06-14T01:26:24;100343.41;;;10.27;86.24
79463;BME280;68931;47.286;18.756;2023-06-14T01:26:59;100390.06;;;10.50;87.57
79463;BME280;68931;47.286;18.756;2023-06-14T01:27:31;100383.81;;;10.52;87.76
79463;BME280;68931;47.286;18.756;2023-06-14T01:28:07;100384.75;;;10.51;87.08
79463;BME280;68931;47.286;18.756;2023-06-14T01:28:43;100383.91;;;10.51;86.90
79463;BME280;68931;47.286;18.756;2023-06-14T01:29:20;100385.69;;;10.50;87.08
79463;BME280;68931;47.286;18.756;2023-06-14T01:29:54;100383.72;;;10.54;87.04
79463;BME280;68931;47.286;18.756;2023-06-14T01:30:29;100388.13;;;10.53;87.21
79463;BME280;68931;47.286;18.756;2023-06-14T01:31:03;100382.03;;;10.53;87.20
79463;BME280;68931;47.286;18.756;2023-06-14T01:31:36;100370.31;;;10.44;87.06
79463;BME280;68931;47.286;18.756;2023-06-14T01:32:13;100379.59;;;10.50;88.01
79463;BME280;68931;47.286;18.756;2023-06-14T01:32:46;100382.03;;;10.53;87.51
79463;BME280;68931;47.286;18.756;2023-06-14T01:33:24;100377.81;;;10.50;87.77
79463;BME280;68931;47.286;18.756;2023-06-14T01:33:57;100391.22;;;10.46;87.63
79463;BME280;68931;47.286;18.756;2023-06-14T01:34:30;100374.81;;;10.42;87.39
79463;BME280;68931;47.286;18.756;2023-06-14T01:35:03;100372.00;;;10.45;87.36
79463;BME280;68931;47.286;18.756;2023-06-14T01:35:36;100385.69;;;10.50;87.21
79463;BME280;68931;47.286;18.756;2023-06-14T01:36:09;100379.19;;;10.42;87.55
79463;BME280;68931;47.286;18.756;2023-06-14T01:36:46;100379.88;;;10.45;87.98
79463;BME280;68931;47.286;18.756;2023-06-14T01:37:20;100385.69;;;10.50;87.53
79463;BME280;68931;47.286;18.756;2023-06-14T01:37:54;100376.41;;;10.45;87.26
79463;BME280;68931;47.286;18.756;2023-06-14T01:38:27;100378.19;;;10.44;87.67
79463;BME280;68931;47.286;18.756;2023-06-14T01:39:01;100390.84;;;10.52;87.14
79463;BME280;68931;47.286;18.756;2023-06-14T01:39:33;100387.47;;;10.50;86.96
79463;BME280;68931;47.286;18.756;2023-06-14T01:40:07;100390.66;;;10.55;87.74
79463;BME280;68931;47.286;18.756;2023-06-14T01:40:42;100390.66;;;10.55;86.52
79463;BME280;68931;47.286;18.756;2023-06-14T01:41:18;100394.22;;;10.54;86.31
79463;BME280;68931;47.286;18.756;2023-06-14T01:41:53;100377.41;;;10.42;85.96
79463;BME280;68931;47.286;18.756;2023-06-14T01:42:25;100392.69;;;10.50;86.29
79463;BME280;68931;47.286;18.756;2023-06-14T01:42:58;100393.56;;;10.50;85.65
79463;BME280;68931;47.286;18.756;2023-06-14T01:43:31;100377.59;;;10.39;86.45
79463;BME280;68931;47.286;18.756;2023-06-14T01:44:04;100387.16;;;10.40;86.22
79463;BME280;68931;47.286;18.756;2023-06-14T01:44:37;100395.69;;;10.44;86.49
79463;BME280;68931;47.286;18.756;2023-06-14T01:45:10;100383.44;;;10.44;86.42
79463;BME280;68931;47.286;18.756;2023-06-14T01:45:45;100379.47;;;10.37;86.02
79463;BME280;68931;47.286;18.756;2023-06-14T01:46:19;100392.16;;;10.45;86.54
79463;BME280;68931;47.286;18.756;2023-06-14T01:46:51;100385.38;;;10.41;86.39
79463;BME280;68931;47.286;18.756;2023-06-14T01:47:24;100382.94;;;10.38;86.46
79463;BME280;68931;47.286;18.756;2023-06-14T01:47:56;100389.69;;;10.42;87.35
79463;BME280;68931;47.286;18.756;2023-06-14T01:48:29;100393.91;;;10.44;86.67
79463;BME280;68931;47.286;18.756;2023-06-14T01:49:01;100394.69;;;10.46;86.63
79463;BME280;68931;47.286;18.756;2023-06-14T01:49:34;100371.03;;;10.32;86.21
79463;BME280;68931;47.286;18.756;2023-06-14T01:50:07;100393.72;;;10.47;86.11
79463;BME280;68931;47.286;18.756;2023-06-14T01:50:39;100391.22;;;10.46;87.20
79463;BME280;68931;47.286;18.756;2023-06-14T01:51:11;100387.16;;;10.40;86.54
79463;BME280;68931;47.286;18.756;2023-06-14T01:51:43;100389.00;;;10.38;86.11
79463;BME280;68931;47.286;18.756;2023-06-14T01:52:15;100384.81;;;10.36;86.47
79463;BME280;68931;47.286;18.756;2023-06-14T01:52:47;100393.69;;;10.33;86.76
79463;BME280;68931;47.286;18.756;2023-06-14T01:53:19;100398.94;;;10.33;86.46
79463;BME280;68931;47.286;18.756;2023-06-14T01:53:53;100390.50;;;10.28;86.84
79463;BME280;68931;47.286;18.756;2023-06-14T01:54:26;100393.84;;;10.30;87.07
79463;BME280;68931;47.286;18.756;2023-06-14T01:54:59;100394.78;;;10.29;87.90
79463;BME280;68931;47.286;18.756;2023-06-14T01:55:34;100386.34;;;10.24;87.72
79463;BME280;68931;47.286;18.756;2023-06-14T01:56:09;100400.03;;;10.29;87.60
79463;BME280;68931;47.286;18.756;2023-06-14T01:56:41;100391.25;;;10.30;87.95
79463;BME280;68931;47.286;18.756;2023-06-14T01:57:13;100393.69;;;10.33;87.46
79463;BME280;68931;47.286;18.756;2023-06-14T01:57:45;100390.38;;;10.30;87.70
79463;BME280;68931;47.286;18.756;2023-06-14T01:58:17;100373.16;;;10.26;86.80
79463;BME280;68931;47.286;18.756;2023-06-14T01:58:49;100390.91;;;10.36;86.78
79463;BME280;68931;47.286;18.756;2023-06-14T01:59:21;100383.03;;;10.36;87.27
79463;BME280;68931;47.286;18.756;2023-06-14T01:59:53;100378.72;;;10.35;86.54
79463;BME280;68931;47.286;18.756;2023-06-14T02:00:25;100383.28;;;10.32;87.43
79463;BME280;68931;47.286;18.756;2023-06-14T02:00:58;100390.13;;;10.34;86.57
79463;BME280;68931;47.286;18.756;2023-06-14T02:01:32;100384.91;;;10.34;86.41
79463;BME280;68931;47.286;18.756;2023-06-14T02:02:06;100385.66;;;10.36;86.22
79463;BME280;68931;47.286;18.756;2023-06-14T02:02:38;100385.75;;;10.35;86.67
79463;BME280;68931;47.286;18.756;2023-06-14T02:03:11;100389.47;;;10.31;86.87
79463;BME280;68931;47.286;18.756;2023-06-14T02:03:43;100384.50;;;10.26;87.54
79463;BME280;68931;47.286;18.756;2023-06-14T02:04:16;100392.00;;;10.32;87.44
79463;BME280;68931;47.286;18.756;2023-06-14T02:04:48;100394.69;;;10.31;87.18
79463;BME280;68931;47.286;18.756;2023-06-14T02:05:20;100383.56;;;10.27;87.25
79463;BME280;68931;47.286;18.756;2023-06-14T02:05:52;100388.53;;;10.32;87.63
79463;BME280;68931;47.286;18.756;2023-06-14T02:06:26;100386.91;;;10.29;87.32
79463;BME280;68931;47.286;18.756;2023-06-14T02:06:59;100382.44;;;10.31;87.09
79463;BME280;68931;47.286;18.756;2023-06-14T02:07:31;100391.25;;;10.30;87.72
79463;BME280;68931;47.286;18.756;2023-06-14T02:08:03;100388.53;;;10.32;88.02
79463;BME280;68931;47.286;18.756;2023-06-14T02:08:35;100397.84;;;10.37;87.16
79463;BME280;68931;47.286;18.756;2023-06-14T02:09:07;100391.75;;;10.37;86.50
79463;BME280;68931;47.286;18.756;2023-06-14T02:09:40;100383.19;;;10.33;86.27
79463;BME280;68931;47.286;18.756;2023-06-14T02:10:12;100386.50;;;10.37;87.10
79463;BME280;68931;47.286;18.756;2023-06-14T02:10:45;100389.84;;;10.39;86.41
79463;BME280;68931;47.286;18.756;2023-06-14T02:11:17;100387.34;;;10.37;86.52
79463;BME280;68931;47.286;18.756;2023-06-14T02:11:49;100390.69;;;10.39;86.54
79463;BME280;68931;47.286;18.756;2023-06-14T02:12:21;100378.88;;;10.32;86.94
79463;BME280;68931;47.286;18.756;2023-06-14T02:12:53;100383.75;;;10.38;86.24
79463;BME280;68931;47.286;18.756;2023-06-14T02:13:25;100387.22;;;10.39;86.18
79463;BME280;68931;47.286;18.756;2023-06-14T02:13:57;100378.03;;;10.32;87.24
79463;BME280;68931;47.286;18.756;2023-06-14T02:14:32;100388.28;;;10.36;86.25
79463;BME280;68931;47.286;18.756;2023-06-14T02:15:05;100389.28;;;10.34;86.65
79463;BME280;68931;47.286;18.756;2023-06-14T02:15:38;100383.19;;;10.33;86.81
79463;BME280;68931;47.286;18.756;2023-06-14T02:16:12;100353.69;;;10.14;86.82
79463;BME280;68931;47.286;18.756;2023-06-14T02:16:49;100386.84;;;10.31;87.77
79463;BME280;68931;47.286;18.756;2023-06-14T02:17:21;100392.00;;;10.32;87.03
79463;BME280;68931;47.286;18.756;2023-06-14T02:17:53;100393.84;;;10.30;87.82
79463;BME280;68931;47.286;18.756;2023-06-14T02:18:25;100397.31;;;10.31;87.82
79463;BME280;68931;47.286;18.756;2023-06-14T02:18:57;100390.50;;;10.28;87.59
79463;BME280;68931;47.286;18.756;2023-06-14T02:19:30;100382.97;;;10.22;87.45
79463;BME280;68931;47.286;18.756;2023-06-14T02:20:02;100392.84;;;10.33;88.26
79463;BME280;68931;47.286;18.756;2023-06-14T02:20:36;100393.13;;;10.28;87.55
79463;BME280;68931;47.286;18.756;2023-06-14T02:21:08;100389.81;;;10.25;87.02
79463;BME280;68931;47.286;18.756;2023-06-14T02:21:40;100395.06;;;10.25;87.80
79463;BME280;68931;47.286;18.756;2023-06-14T02:22:12;100388.22;;;10.22;87.24
79463;BME280;68931;47.286;18.756;2023-06-14T02:22:46;100399.47;;;10.24;87.14
79463;BME280;68931;47.286;18.756;2023-06-14T02:23:18;100379.06;;;10.13;88.32
79463;BME280;68931;47.286;18.756;2023-06-14T02:23:51;100402.44;;;10.18;87.96
79463;BME280;68931;47.286;18.756;2023-06-14T02:24:23;100400.69;;;10.18;88.00
79463;BME280;68931;47.286;18.756;2023-06-14T02:24:55;100358.91;;;10.00;87.88
79463;BME280;68931;47.286;18.756;2023-06-14T02:25:32;100391.03;;;10.19;87.90
79463;BME280;68931;47.286;18.756;2023-06-14T02:26:04;100407.41;;;10.23;88.24
79463;BME280;68931;47.286;18.756;2023-06-14T02:26:36;100398.63;;;10.24;87.62
79463;BME280;68931;47.286;18.756;2023-06-14T02:27:13;100395.84;;;10.27;88.11
79463;BME280;68931;47.286;18.756;2023-06-14T02:27:45;100397.00;;;10.21;87.74
79463;BME280;68931;47.286;18.756;2023-06-14T02:28:22;100387.63;;;10.17;87.87
79463;BME280;68931;47.286;18.756;2023-06-14T02:28:54;100392.00;;;10.16;88.68
79463;BME280;68931;47.286;18.756;2023-06-14T02:29:26;100396.84;;;10.24;88.46
79463;BME280;68931;47.286;18.756;2023-06-14T02:30:01;100400.41;;;10.23;88.52
79463;BME280;68931;47.286;18.756;2023-06-14T02:30:33;100404.63;;;10.26;88.51
79463;BME280;68931;47.286;18.756;2023-06-14T02:31:05;100404.53;;;10.27;88.26
79463;BME280;68931;47.286;18.756;2023-06-14T02:31:38;100401.91;;;10.27;88.65
79463;BME280;68931;47.286;18.756;2023-06-14T02:32:10;100390.25;;;10.17;89.31
79463;BME280;68931;47.286;18.756;2023-06-14T02:32:42;100403.63;;;10.28;89.33
79463;BME280;68931;47.286;18.756;2023-06-14T02:33:14;100400.22;;;10.26;88.33
79463;BME280;68931;47.286;18.756;2023-06-14T02:33:46;100398.44;;;10.27;88.92
79463;BME280;68931;47.286;18.756;2023-06-14T02:34:19;100401.91;;;10.27;89.01
79463;BME280;68931;47.286;18.756;2023-06-14T02:34:52;100397.53;;;10.28;88.31
79463;BME280;68931;47.286;18.756;2023-06-14T02:35:25;100396.47;;;10.30;88.84
79463;BME280;68931;47.286;18.756;2023-06-14T02:35:58;100395.56;;;10.31;88.50
79463;BME280;68931;47.286;18.756;2023-06-14T02:36:30;100396.47;;;10.30;88.54
79463;BME280;68931;47.286;18.756;2023-06-14T02:37:02;100371.03;;;10.16;87.45
79463;BME280;68931;47.286;18.756;2023-06-14T02:37:34;100398.84;;;10.35;87.47
79463;BME280;68931;47.286;18.756;2023-06-14T02:38:07;100407.56;;;10.35;86.39
79463;BME280;68931;47.286;18.756;2023-06-14T02:38:39;100394.06;;;10.27;86.37
79463;BME280;68931;47.286;18.756;2023-06-14T02:39:11;100393.97;;;10.29;86.45
79463;BME280;68931;47.286;18.756;2023-06-14T02:39:43;100403.94;;;10.38;87.36
79463;BME280;68931;47.286;18.756;2023-06-14T02:40:15;100404.00;;;10.36;86.99
79463;BME280;68931;47.286;18.756;2023-06-14T02:40:47;100400.53;;;10.36;87.08
79463;BME280;68931;47.286;18.756;2023-06-14T02:41:19;100396.31;;;10.33;86.75
79463;BME280;68931;47.286;18.756;2023-06-14T02:41:51;100389.53;;;10.29;87.16
79463;BME280;68931;47.286;18.756;2023-06-14T02:42:25;100398.78;;;10.36;86.87
79463;BME280;68931;47.286;18.756;2023-06-14T02:42:57;100396.16;;;10.36;87.08
79463;BME280;68931;47.286;18.756;2023-06-14T02:43:29;100397.84;;;10.37;86.87
79463;BME280;68931;47.286;18.756;2023-06-14T02:44:01;100391.00;;;10.35;86.39
79463;BME280;68931;47.286;18.756;2023-06-14T02:44:33;100390.31;;;10.31;87.62
79463;BME280;68931;47.286;18.756;2023-06-14T02:45:07;100386.91;;;10.29;86.53
79463;BME280;68931;47.286;18.756;2023-06-14T02:45:40;100399.63;;;10.37;86.99
79463;BME280;68931;47.286;18.756;2023-06-14T02:46:12;100389.53;;;10.29;86.89
79463;BME280;68931;47.286;18.756;2023-06-14T02:46:44;100384.66;;;10.23;87.42
79463;BME280;68931;47.286;18.756;2023-06-14T02:47:20;100400.22;;;10.26;86.20
79463;BME280;68931;47.286;18.756;2023-06-14T02:47:52;100407.91;;;10.29;87.34
79463;BME280;68931;47.286;18.756;2023-06-14T02:48:24;100403.78;;;10.25;86.81
79463;BME280;68931;47.286;18.756;2023-06-14T02:48:56;100383.31;;;10.16;86.90
79463;BME280;68931;47.286;18.756;2023-06-14T02:49:28;100371.66;;;10.06;87.29
79463;BME280;68931;47.286;18.756;2023-06-14T02:50:02;100396.50;;;10.14;87.75
79463;BME280;68931;47.286;18.756;2023-06-14T02:50:34;100400.59;;;10.20;87.73
79463;BME280;68931;47.286;18.756;2023-06-14T02:51:06;100410.97;;;10.22;88.21
79463;BME280;68931;47.286;18.756;2023-06-14T02:51:42;100411.09;;;10.20;88.03
79463;BME280;68931;47.286;18.756;2023-06-14T02:52:15;100410.03;;;10.23;88.41
79463;BME280;68931;47.286;18.756;2023-06-14T02:52:47;100412.94;;;10.18;88.20
79463;BME280;68931;47.286;18.756;2023-06-14T02:53:19;100415.59;;;10.16;88.01
79463;BME280;68931;47.286;18.756;2023-06-14T02:53:52;100403.09;;;10.22;87.95